Time,TemperatureF,DewpointF,PressureIn,WindDirection,WindDirectionDegrees,WindSpeedMPH,WindSpeedGustMPH,Humidity,HourlyPrecipIn,Conditions,Clouds,dailyrainin,SolarRadiationWatts/m^2,SoftwareType,DateUTC
2013-09-24 00:09:00,83.5,83.5,29.86,North,-999,0.0,0.0,100,0.00,,,-99.99,0,WeatherLink 5.4,2013-09-24 04:09:00,
2013-09-24 00:10:00,83.5,83.5,29.86,North,-999,0.0,0.0,100,0.00,,,-99.99,0,WeatherLink 5.4,2013-09-24 04:10:00,
2013-09-24 00:20:00,83.5,83.5,29.86,North,-999,0.0,0.0,100,0.00,,,-99.99,0,WeatherLink 5.4,2013-09-24 04:20:00,
2013-09-24 00:24:00,83.5,83.5,29.86,North,-999,0.0,0.0,100,0.00,,,-99.99,0,WeatherLink 5.4,2013-09-24 04:24:00,
2013-09-24 00:39:00,83.1,83.1,29.86,North,-999,0.0,0.0,100,0.00,,,-99.99,0,WeatherLink 5.4,2013-09-24 04:39:00,
2013-09-24 00:40:00,83.0,83.0,29.86,North,-999,0.0,3.0,100,0.00,,,-99.99,0,WeatherLink 5.4,2013-09-24 04:40:00,
2013-09-24 00:50:00,82.7,82.7,29.86,North,-999,0.0,0.0,100,0.00,,,-99.99,0,WeatherLink 5.4,2013-09-24 04:50:00,
2013-09-24 00:54:00,82.7,82.7,29.86,North,-999,0.0,0.0,100,0.00,,,-99.99,0,WeatherLink 5.4,2013-09-24 04:54:00,
2013-09-24 01:09:00,82.7,82.7,29.85,North,-999,0.0,0.0,100,0.00,,,-99.99,0,WeatherLink 5.4,2013-09-24 05:09:00,
2013-09-24 01:10:00,82.5,82.5,29.85,North,-999,0.0,0.0,100,0.00,,,-99.99,0,WeatherLink 5.4,2013-09-24 05:10:00,
2013-09-24 01:20:00,82.4,82.4,29.85,North,-999,0.0,0.0,100,0.00,,,-99.99,0,WeatherLink 5.4,2013-09-24 05:20:00,
2013-09-24 01:24:00,82.4,82.4,29.85,North,-999,0.0,0.0,100,0.00,,,-99.99,0,WeatherLink 5.4,2013-09-24 05:24:00,
2013-09-24 01:38:00,82.4,82.4,29.85,North,-999,0.0,0.0,100,0.00,,,-99.99,0,WeatherLink 5.4,2013-09-24 05:38:00,
2013-09-24 01:40:00,82.4,82.4,29.85,North,-999,0.0,0.0,100,0.00,,,-99.99,0,WeatherLink 5.4,2013-09-24 05:40:00,
2013-09-24 01:50:00,82.3,82.3,29.84,North,-999,0.0,0.0,100,0.00,,,-99.99,0,WeatherLink 5.4,2013-09-24 05:50:00,
2013-09-24 01:53:00,82.3,82.3,29.84,North,-999,0.0,0.0,100,0.00,,,-99.99,0,WeatherLink 5.4,2013-09-24 05:53:00,
2013-09-24 02:08:00,82.3,82.3,29.84,North,-999,0.0,0.0,100,0.00,,,-99.99,0,WeatherLink 5.4,2013-09-24 06:08:00,
2013-09-24 02:10:00,82.1,82.1,29.84,North,-999,0.0,0.0,100,0.00,,,-99.99,0,WeatherLink 5.4,2013-09-24 06:10:00,
2013-09-24 02:20:00,81.7,81.7,29.84,North,-999,0.0,0.0,100,0.00,,,-99.99,0,WeatherLink 5.4,2013-09-24 06:20:00,
2013-09-24 02:25:00,81.7,81.7,29.84,North,-999,0.0,0.0,100,0.00,,,-99.99,0,WeatherLink 5.4,2013-09-24 06:25:00,
2013-09-24 02:30:00,81.5,81.5,29.84,North,-999,0.0,0.0,100,0.00,,,-99.99,0,WeatherLink 5.4,2013-09-24 06:30:00,
2013-09-24 02:40:00,81.3,81.3,29.84,North,-999,0.0,0.0,100,0.00,,,-99.99,0,WeatherLink 5.4,2013-09-24 06:40:00,
2013-09-24 02:50:00,81.2,81.2,29.83,North,-999,0.0,0.0,100,0.00,,,-99.99,0,WeatherLink 5.4,2013-09-24 06:50:00,
2013-09-24 03:00:00,80.9,80.9,29.83,North,-999,0.0,0.0,100,0.00,,,-99.99,0,WeatherLink 5.4,2013-09-24 07:00:00,
2013-09-24 03:10:00,80.4,80.4,29.83,North,-999,0.0,0.0,100,0.00,,,-99.99,0,WeatherLink 5.4,2013-09-24 07:10:00,
2013-09-24 03:20:00,80.0,80.0,29.83,North,-999,0.0,0.0,100,0.00,,,-99.99,0,WeatherLink 5.4,2013-09-24 07:20:00,
2013-09-24 03:30:00,79.8,79.8,29.82,North,-999,0.0,0.0,100,0.00,,,-99.99,0,WeatherLink 5.4,2013-09-24 07:30:00,
2013-09-24 03:40:00,79.6,79.6,29.82,North,-999,0.0,0.0,100,0.00,,,-99.99,0,WeatherLink 5.4,2013-09-24 07:40:00,
2013-09-24 03:50:00,79.6,79.6,29.82,North,-999,0.0,0.0,100,0.00,,,-99.99,0,WeatherLink 5.4,2013-09-24 07:50:00,
2013-09-24 04:00:00,79.6,79.6,29.82,North,-999,0.0,0.0,100,0.00,,,-99.99,0,WeatherLink 5.4,2013-09-24 08:00:00,
2013-09-24 04:10:00,79.7,79.7,29.82,SE,135,0.0,2.0,100,0.00,,,-99.99,0,WeatherLink 5.4,2013-09-24 08:10:00,
2013-09-24 04:20:00,80.0,80.0,29.81,North,-999,0.0,0.0,100,0.00,,,-99.99,0,WeatherLink 5.4,2013-09-24 08:20:00,
2013-09-24 04:24:00,80.0,80.0,29.81,North,-999,0.0,0.0,100,0.00,,,-99.99,0,WeatherLink 5.4,2013-09-24 08:24:00,
2013-09-24 04:38:00,80.3,80.3,29.82,North,-999,0.0,0.0,100,0.00,,,-99.99,0,WeatherLink 5.4,2013-09-24 08:38:00,
2013-09-24 04:40:00,80.4,80.4,29.82,North,-999,0.0,0.0,100,0.00,,,-99.99,0,WeatherLink 5.4,2013-09-24 08:40:00,
2013-09-24 04:50:00,80.5,80.5,29.82,North,-999,0.0,0.0,100,0.00,,,-99.99,0,WeatherLink 5.4,2013-09-24 08:50:00,
2013-09-24 04:53:00,80.5,80.5,29.82,North,-999,0.0,0.0,100,0.00,,,-99.99,0,WeatherLink 5.4,2013-09-24 08:53:00,
2013-09-24 05:08:00,80.7,80.7,29.82,North,-999,0.0,0.0,100,0.00,,,-99.99,0,WeatherLink 5.4,2013-09-24 09:08:00,
2013-09-24 05:10:00,80.7,80.7,29.82,North,-999,0.0,0.0,100,0.00,,,-99.99,0,WeatherLink 5.4,2013-09-24 09:10:00,
2013-09-24 05:20:00,80.5,80.5,29.83,North,-999,0.0,0.0,100,0.00,,,-99.99,0,WeatherLink 5.4,2013-09-24 09:20:00,
2013-09-24 05:24:00,80.5,80.5,29.83,North,-999,0.0,0.0,100,0.00,,,-99.99,0,WeatherLink 5.4,2013-09-24 09:24:00,
2013-09-24 05:39:00,80.5,80.5,29.83,ESE,112,0.0,3.0,100,0.00,,,-99.99,0,WeatherLink 5.4,2013-09-24 09:39:00,
2013-09-24 05:40:00,80.4,80.4,29.83,North,-999,0.0,0.0,100,0.00,,,-99.99,0,WeatherLink 5.4,2013-09-24 09:40:00,
2013-09-24 05:50:00,80.3,80.3,29.84,East,90,0.0,3.0,100,0.00,,,-99.99,0,WeatherLink 5.4,2013-09-24 09:50:00,
2013-09-24 05:54:00,80.3,80.3,29.84,East,90,0.0,3.0,100,0.00,,,-99.99,0,WeatherLink 5.4,2013-09-24 09:54:00,
2013-09-24 06:09:00,80.3,80.3,29.83,North,-999,0.0,0.0,100,0.00,,,-99.99,0,WeatherLink 5.4,2013-09-24 10:09:00,
2013-09-24 06:10:00,80.2,80.2,29.83,ESE,112,0.0,1.0,100,0.00,,,-99.99,0,WeatherLink 5.4,2013-09-24 10:10:00,
2013-09-24 06:20:00,80.0,80.0,29.84,ESE,112,1.0,5.0,100,0.00,,,-99.99,0,WeatherLink 5.4,2013-09-24 10:20:00,
2013-09-24 06:24:00,80.0,80.0,29.84,ESE,112,1.0,5.0,100,0.00,,,-99.99,0,WeatherLink 5.4,2013-09-24 10:24:00,
2013-09-24 06:39:00,79.9,79.9,29.84,East,90,1.0,3.0,100,0.00,,,-99.99,7,WeatherLink 5.4,2013-09-24 10:39:00,
2013-09-24 06:40:00,79.9,79.9,29.84,ESE,112,1.0,3.0,100,0.00,,,-99.99,39,WeatherLink 5.4,2013-09-24 10:40:00,
2013-09-24 06:50:00,79.9,79.9,29.84,ESE,112,0.0,2.0,100,0.00,,,-99.99,39,WeatherLink 5.4,2013-09-24 10:50:00,
2013-09-24 06:54:00,79.9,79.9,29.84,ESE,112,0.0,2.0,100,0.00,,,-99.99,39,WeatherLink 5.4,2013-09-24 10:54:00,
2013-09-24 07:09:00,79.9,79.9,29.85,North,-999,0.0,0.0,100,0.00,,,-99.99,53,WeatherLink 5.4,2013-09-24 11:09:00,
2013-09-24 07:10:00,80.0,80.0,29.85,North,-999,0.0,0.0,100,0.00,,,-99.99,53,WeatherLink 5.4,2013-09-24 11:10:00,
2013-09-24 07:20:00,80.5,80.5,29.85,North,-999,0.0,0.0,100,0.00,,,-99.99,53,WeatherLink 5.4,2013-09-24 11:20:00,
2013-09-24 07:23:00,80.5,80.5,29.85,North,-999,0.0,0.0,100,0.00,,,-99.99,53,WeatherLink 5.4,2013-09-24 11:23:00,
2013-09-24 07:39:00,80.8,80.8,29.86,North,-999,0.0,0.0,100,0.00,,,-99.99,53,WeatherLink 5.4,2013-09-24 11:39:00,
2013-09-24 07:40:00,81.4,81.4,29.86,North,-999,0.0,0.0,100,0.00,,,-99.99,53,WeatherLink 5.4,2013-09-24 11:40:00,
2013-09-24 07:50:00,82.1,82.1,29.86,ESE,112,0.0,2.0,100,0.00,,,-99.99,53,WeatherLink 5.4,2013-09-24 11:50:00,
2013-09-24 07:53:00,82.1,82.1,29.86,ESE,112,0.0,2.0,100,0.00,,,-99.99,53,WeatherLink 5.4,2013-09-24 11:53:00,
2013-09-24 08:08:00,82.7,82.7,29.86,North,-999,0.0,0.0,100,0.00,,,-99.99,53,WeatherLink 5.4,2013-09-24 12:08:00,
2013-09-24 08:10:00,83.5,83.5,29.86,ESE,112,0.0,3.0,100,0.00,,,-99.99,359,WeatherLink 5.4,2013-09-24 12:10:00,
2013-09-24 08:20:00,84.1,84.1,29.86,ESE,112,1.0,6.0,100,0.00,,,-99.99,359,WeatherLink 5.4,2013-09-24 12:20:00,
2013-09-24 08:24:00,84.1,84.1,29.86,ESE,112,1.0,6.0,100,0.00,,,-99.99,359,WeatherLink 5.4,2013-09-24 12:24:00,
2013-09-24 08:39:00,84.6,84.6,29.86,ENE,67,1.0,11.0,100,0.00,,,-99.99,359,WeatherLink 5.4,2013-09-24 12:39:00,
2013-09-24 08:40:00,85.0,85.0,29.86,ESE,112,2.0,7.0,100,0.00,,,-99.99,359,WeatherLink 5.4,2013-09-24 12:40:00,
2013-09-24 08:50:00,85.3,85.3,29.86,ESE,112,3.0,8.0,100,0.00,,,-99.99,359,WeatherLink 5.4,2013-09-24 12:50:00,
2013-09-24 08:54:00,85.3,85.3,29.86,ESE,112,3.0,8.0,100,0.00,,,-99.99,359,WeatherLink 5.4,2013-09-24 12:54:00,
2013-09-24 09:09:00,85.4,85.4,29.86,ESE,112,2.0,9.0,100,0.00,,,-99.99,359,WeatherLink 5.4,2013-09-24 13:09:00,
2013-09-24 09:10:00,86.0,86.0,29.86,SE,135,0.0,2.0,100,0.00,,,-99.99,359,WeatherLink 5.4,2013-09-24 13:10:00,
2013-09-24 09:20:00,86.6,86.6,29.86,SSE,157,2.0,6.0,100,0.00,,,-99.99,359,WeatherLink 5.4,2013-09-24 13:20:00,
2013-09-24 09:24:00,86.6,86.6,29.86,SSE,157,2.0,6.0,100,0.00,,,-99.99,359,WeatherLink 5.4,2013-09-24 13:24:00,
2013-09-24 09:39:00,86.7,86.7,29.86,SE,135,2.0,10.0,100,0.00,,,-99.99,359,WeatherLink 5.4,2013-09-24 13:39:00,
2013-09-24 09:40:00,87.0,87.0,29.86,ESE,112,5.0,12.0,100,0.00,,,-99.99,359,WeatherLink 5.4,2013-09-24 13:40:00,
2013-09-24 09:50:00,87.1,87.1,29.86,ESE,112,3.0,8.0,100,0.00,,,-99.99,359,WeatherLink 5.4,2013-09-24 13:50:00,
2013-09-24 09:54:00,87.1,87.1,29.86,ESE,112,3.0,8.0,100,0.00,,,-99.99,359,WeatherLink 5.4,2013-09-24 13:54:00,
2013-09-24 10:09:00,87.9,87.9,29.86,ESE,112,6.0,11.0,100,0.00,,,-99.99,359,WeatherLink 5.4,2013-09-24 14:09:00,
2013-09-24 10:10:00,88.0,88.0,29.86,ESE,112,5.0,16.0,100,0.00,,,-99.99,359,WeatherLink 5.4,2013-09-24 14:10:00,
2013-09-24 10:20:00,88.1,88.1,29.86,ESE,112,5.0,7.0,100,0.00,,,-99.99,359,WeatherLink 5.4,2013-09-24 14:20:00,
2013-09-24 10:24:00,88.1,88.1,29.86,ESE,112,5.0,7.0,100,0.00,,,-99.99,359,WeatherLink 5.4,2013-09-24 14:24:00,
2013-09-24 10:38:00,88.2,88.2,29.86,SE,135,5.0,8.0,100,0.00,,,-99.99,359,WeatherLink 5.4,2013-09-24 14:38:00,
2013-09-24 10:40:00,88.1,88.1,29.86,SE,135,1.0,5.0,100,0.00,,,-99.99,359,WeatherLink 5.4,2013-09-24 14:40:00,
2013-09-24 10:50:00,88.7,88.7,29.86,SE,135,3.0,7.0,100,0.00,,,-99.99,359,WeatherLink 5.4,2013-09-24 14:50:00,
2013-09-24 10:53:00,88.7,88.7,29.86,SE,135,3.0,7.0,100,0.00,,,-99.99,359,WeatherLink 5.4,2013-09-24 14:53:00,
2013-09-24 11:08:00,88.9,88.9,29.85,ENE,67,3.0,8.0,100,0.00,,,-99.99,359,WeatherLink 5.4,2013-09-24 15:08:00,
2013-09-24 11:10:00,89.0,89.0,29.85,SE,135,4.0,12.0,100,0.00,,,-99.99,359,WeatherLink 5.4,2013-09-24 15:10:00,
2013-09-24 11:20:00,89.3,89.3,29.85,ESE,112,5.0,11.0,100,0.00,,,-99.99,359,WeatherLink 5.4,2013-09-24 15:20:00,
2013-09-24 11:39:00,89.4,89.4,29.84,East,90,6.0,10.0,100,0.00,,,-99.99,359,WeatherLink 5.4,2013-09-24 15:39:00,
2013-09-24 11:40:00,89.6,89.6,29.84,ESE,112,5.0,12.0,100,0.00,,,-99.99,917,WeatherLink 5.4,2013-09-24 15:40:00,
2013-09-24 11:50:00,89.9,89.9,29.84,East,90,6.0,11.0,100,0.00,,,-99.99,917,WeatherLink 5.4,2013-09-24 15:50:00,
2013-09-24 11:54:00,89.9,89.9,29.84,East,90,6.0,11.0,100,0.00,,,-99.99,917,WeatherLink 5.4,2013-09-24 15:54:00,
2013-09-24 12:09:00,90.0,90.0,29.83,East,90,5.0,11.0,100,0.00,,,-99.99,938,WeatherLink 5.4,2013-09-24 16:09:00,
2013-09-24 12:10:00,90.4,90.4,29.83,East,90,4.0,10.0,100,0.00,,,-99.99,938,WeatherLink 5.4,2013-09-24 16:10:00,
2013-09-24 12:20:00,90.2,90.2,29.82,East,90,5.0,8.0,100,0.00,,,-99.99,955,WeatherLink 5.4,2013-09-24 16:20:00,
2013-09-24 12:24:00,90.2,90.2,29.82,East,90,5.0,8.0,100,0.00,,,-99.99,955,WeatherLink 5.4,2013-09-24 16:24:00,
2013-09-24 12:39:00,90.0,90.0,29.81,ESE,112,5.0,11.0,100,0.00,,,-99.99,927,WeatherLink 5.4,2013-09-24 16:39:00,
2013-09-24 12:40:00,90.5,90.5,29.81,ESE,112,2.0,7.0,100,0.00,,,-99.99,927,WeatherLink 5.4,2013-09-24 16:40:00,
2013-09-24 12:50:00,91.4,91.4,29.81,SE,135,4.0,11.0,100,0.00,,,-99.99,927,WeatherLink 5.4,2013-09-24 16:50:00,
2013-09-24 12:54:00,91.4,91.4,29.81,SE,135,4.0,11.0,100,0.00,,,-99.99,927,WeatherLink 5.4,2013-09-24 16:54:00,
2013-09-24 13:09:00,91.4,91.4,29.80,East,90,4.0,10.0,100,0.00,,,-99.99,927,WeatherLink 5.4,2013-09-24 17:09:00,
2013-09-24 13:10:00,91.0,91.0,29.80,ESE,112,7.0,13.0,100,0.00,,,-99.99,999,WeatherLink 5.4,2013-09-24 17:10:00,
2013-09-24 13:20:00,90.4,90.4,29.80,East,90,6.0,11.0,100,0.00,,,-99.99,999,WeatherLink 5.4,2013-09-24 17:20:00,
2013-09-24 13:23:00,90.4,90.4,29.80,East,90,6.0,11.0,100,0.00,,,-99.99,999,WeatherLink 5.4,2013-09-24 17:23:00,
2013-09-24 13:38:00,90.5,90.5,29.80,ESE,112,4.0,9.0,100,0.00,,,-99.99,999,WeatherLink 5.4,2013-09-24 17:38:00,
2013-09-24 13:40:00,90.0,90.0,29.80,ESE,112,3.0,10.0,100,0.00,,,-99.99,999,WeatherLink 5.4,2013-09-24 17:40:00,
2013-09-24 13:50:00,90.7,90.7,29.79,ESE,112,4.0,12.0,100,0.00,,,-99.99,999,WeatherLink 5.4,2013-09-24 17:50:00,
2013-09-24 13:53:00,90.7,90.7,29.79,ESE,112,4.0,12.0,100,0.00,,,-99.99,999,WeatherLink 5.4,2013-09-24 17:53:00,
2013-09-24 14:08:00,91.3,91.3,29.78,ESE,112,5.0,11.0,100,0.00,,,-99.99,999,WeatherLink 5.4,2013-09-24 18:08:00,
2013-09-24 14:10:00,91.0,91.0,29.78,ESE,112,4.0,11.0,100,0.00,,,-99.99,841,WeatherLink 5.4,2013-09-24 18:10:00,
2013-09-24 14:20:00,91.7,91.7,29.78,ESE,112,3.0,13.0,100,0.00,,,-99.99,841,WeatherLink 5.4,2013-09-24 18:20:00,
2013-09-24 14:24:00,91.7,91.7,29.78,ESE,112,3.0,13.0,100,0.00,,,-99.99,841,WeatherLink 5.4,2013-09-24 18:24:00,
2013-09-24 14:39:00,91.7,91.7,29.77,ESE,112,6.0,11.0,100,0.00,,,-99.99,841,WeatherLink 5.4,2013-09-24 18:39:00,
2013-09-24 14:40:00,91.6,91.6,29.77,ESE,112,5.0,8.0,100,0.00,,,-99.99,841,WeatherLink 5.4,2013-09-24 18:40:00,
2013-09-24 14:50:00,91.7,91.7,29.76,ESE,112,3.0,6.0,100,0.00,,,-99.99,841,WeatherLink 5.4,2013-09-24 18:50:00,
2013-09-24 14:54:00,91.7,91.7,29.76,ESE,112,3.0,6.0,100,0.00,,,-99.99,841,WeatherLink 5.4,2013-09-24 18:54:00,
2013-09-24 15:09:00,91.5,91.5,29.76,East,90,4.0,10.0,100,0.00,,,-99.99,681,WeatherLink 5.4,2013-09-24 19:09:00,
2013-09-24 15:10:00,91.5,91.5,29.76,ESE,112,5.0,8.0,100,0.00,,,-99.99,681,WeatherLink 5.4,2013-09-24 19:10:00,
2013-09-24 15:20:00,91.3,91.3,29.76,East,90,5.0,12.0,100,0.00,,,-99.99,681,WeatherLink 5.4,2013-09-24 19:20:00,
2013-09-24 15:24:00,91.3,91.3,29.76,East,90,5.0,12.0,100,0.00,,,-99.99,681,WeatherLink 5.4,2013-09-24 19:24:00,
2013-09-24 15:39:00,91.2,91.2,29.76,East,90,5.0,10.0,100,0.00,,,-99.99,681,WeatherLink 5.4,2013-09-24 19:39:00,
2013-09-24 15:40:00,91.1,91.1,29.76,East,90,5.0,12.0,100,0.00,,,-99.99,584,WeatherLink 5.4,2013-09-24 19:40:00,
2013-09-24 15:50:00,91.2,91.2,29.76,ESE,112,5.0,8.0,100,0.00,,,-99.99,584,WeatherLink 5.4,2013-09-24 19:50:00,
2013-09-24 15:54:00,91.2,91.2,29.76,ESE,112,5.0,8.0,100,0.00,,,-99.99,584,WeatherLink 5.4,2013-09-24 19:54:00,
2013-09-24 16:08:00,91.2,91.2,29.76,ESE,112,6.0,11.0,100,0.00,,,-99.99,584,WeatherLink 5.4,2013-09-24 20:08:00,
2013-09-24 16:10:00,91.1,91.1,29.76,East,90,6.0,12.0,100,0.00,,,-99.99,584,WeatherLink 5.4,2013-09-24 20:10:00,
2013-09-24 16:20:00,90.9,90.9,29.75,East,90,3.0,10.0,100,0.00,,,-99.99,584,WeatherLink 5.4,2013-09-24 20:20:00,
2013-09-24 16:23:00,90.9,90.9,29.75,East,90,3.0,10.0,100,0.00,,,-99.99,584,WeatherLink 5.4,2013-09-24 20:23:00,
2013-09-24 16:38:00,90.6,90.6,29.75,ESE,112,7.0,11.0,100,0.00,,,-99.99,584,WeatherLink 5.4,2013-09-24 20:38:00,
2013-09-24 16:40:00,90.2,90.2,29.75,ESE,112,6.0,11.0,100,0.00,,,-99.99,584,WeatherLink 5.4,2013-09-24 20:40:00,
2013-09-24 16:50:00,90.2,90.2,29.75,ESE,112,4.0,7.0,100,0.00,,,-99.99,584,WeatherLink 5.4,2013-09-24 20:50:00,
2013-09-24 16:53:00,90.2,90.2,29.75,ESE,112,4.0,7.0,100,0.00,,,-99.99,584,WeatherLink 5.4,2013-09-24 20:53:00,
2013-09-24 17:08:00,90.1,90.1,29.76,SE,135,2.0,6.0,100,0.00,,,-99.99,584,WeatherLink 5.4,2013-09-24 21:08:00,
2013-09-24 17:10:00,90.2,90.2,29.76,SSE,157,1.0,8.0,100,0.00,,,-99.99,584,WeatherLink 5.4,2013-09-24 21:10:00,
2013-09-24 17:20:00,90.1,90.1,29.76,ESE,112,4.0,7.0,100,0.00,,,-99.99,584,WeatherLink 5.4,2013-09-24 21:20:00,
2013-09-24 17:24:00,90.1,90.1,29.76,ESE,112,4.0,7.0,100,0.00,,,-99.99,584,WeatherLink 5.4,2013-09-24 21:24:00,
2013-09-24 17:39:00,89.6,89.6,29.76,ESE,112,2.0,6.0,100,0.00,,,-99.99,584,WeatherLink 5.4,2013-09-24 21:39:00,
2013-09-24 17:40:00,89.1,89.1,29.76,ESE,112,2.0,6.0,100,0.00,,,-99.99,584,WeatherLink 5.4,2013-09-24 21:40:00,
2013-09-24 17:50:00,88.9,88.9,29.77,ESE,112,1.0,6.0,100,0.00,,,-99.99,584,WeatherLink 5.4,2013-09-24 21:50:00,
2013-09-24 17:54:00,88.9,88.9,29.77,ESE,112,1.0,6.0,100,0.00,,,-99.99,584,WeatherLink 5.4,2013-09-24 21:54:00,
2013-09-24 18:09:00,88.4,88.4,29.77,ESE,112,2.0,7.0,100,0.00,,,-99.99,584,WeatherLink 5.4,2013-09-24 22:09:00,
2013-09-24 18:10:00,88.1,88.1,29.77,ESE,112,1.0,7.0,100,0.00,,,-99.99,12,WeatherLink 5.4,2013-09-24 22:10:00,
2013-09-24 18:20:00,87.5,87.5,29.77,ESE,112,3.0,11.0,100,0.00,,,-99.99,5,WeatherLink 5.4,2013-09-24 22:20:00,
2013-09-24 18:24:00,87.5,87.5,29.77,ESE,112,3.0,11.0,100,0.00,,,-99.99,5,WeatherLink 5.4,2013-09-24 22:24:00,
2013-09-24 18:39:00,86.8,86.8,29.77,SE,135,2.0,8.0,100,0.00,,,-99.99,5,WeatherLink 5.4,2013-09-24 22:39:00,
2013-09-24 18:40:00,86.4,86.4,29.77,ESE,112,0.0,2.0,100,0.00,,,-99.99,0,WeatherLink 5.4,2013-09-24 22:40:00,
2013-09-24 18:50:00,86.1,86.1,29.77,SE,135,1.0,7.0,100,0.00,,,-99.99,0,WeatherLink 5.4,2013-09-24 22:50:00,
2013-09-24 18:54:00,86.1,86.1,29.77,SE,135,1.0,7.0,100,0.00,,,-99.99,0,WeatherLink 5.4,2013-09-24 22:54:00,
2013-09-24 19:09:00,85.8,85.8,29.77,SE,135,2.0,8.0,100,0.00,,,-99.99,0,WeatherLink 5.4,2013-09-24 23:09:00,
2013-09-24 19:10:00,85.5,85.5,29.77,ESE,112,3.0,10.0,100,0.00,,,-99.99,0,WeatherLink 5.4,2013-09-24 23:10:00,
2013-09-24 19:20:00,84.9,84.9,29.78,SE,135,2.0,8.0,100,0.00,,,-99.99,0,WeatherLink 5.4,2013-09-24 23:20:00,
2013-09-24 19:24:00,84.9,84.9,29.78,SE,135,2.0,8.0,100,0.00,,,-99.99,0,WeatherLink 5.4,2013-09-24 23:24:00,
2013-09-24 19:39:00,84.6,84.6,29.78,SE,135,2.0,7.0,100,0.00,,,-99.99,0,WeatherLink 5.4,2013-09-24 23:39:00,
2013-09-24 19:40:00,84.4,84.4,29.78,SE,135,1.0,6.0,100,0.00,,,-99.99,0,WeatherLink 5.4,2013-09-24 23:40:00,
2013-09-24 19:50:00,84.2,84.2,29.79,ENE,67,1.0,6.0,100,0.00,,,-99.99,0,WeatherLink 5.4,2013-09-24 23:50:00,
2013-09-24 19:53:00,84.2,84.2,29.79,ENE,67,1.0,6.0,100,0.00,,,-99.99,0,WeatherLink 5.4,2013-09-24 23:53:00,
2013-09-24 20:09:00,84.1,84.1,29.79,SE,135,1.0,3.0,100,0.00,,,-99.99,0,WeatherLink 5.4,2013-09-25 00:09:00,
2013-09-24 20:10:00,84.0,84.0,29.79,North,-999,0.0,0.0,100,0.00,,,-99.99,0,WeatherLink 5.4,2013-09-25 00:10:00,
2013-09-24 20:20:00,83.9,83.9,29.80,North,-999,0.0,0.0,100,0.00,,,-99.99,0,WeatherLink 5.4,2013-09-25 00:20:00,
2013-09-24 20:24:00,83.9,83.9,29.80,North,-999,0.0,0.0,100,0.00,,,-99.99,0,WeatherLink 5.4,2013-09-25 00:24:00,
2013-09-24 20:39:00,83.8,83.8,29.80,SE,135,0.0,1.0,100,0.00,,,-99.99,0,WeatherLink 5.4,2013-09-25 00:39:00,
2013-09-24 20:40:00,83.6,83.6,29.80,North,-999,0.0,0.0,100,0.00,,,-99.99,0,WeatherLink 5.4,2013-09-25 00:40:00,
2013-09-24 20:50:00,83.4,83.4,29.81,North,-999,0.0,0.0,100,0.00,,,-99.99,0,WeatherLink 5.4,2013-09-25 00:50:00,
2013-09-24 20:54:00,83.4,83.4,29.81,North,-999,0.0,0.0,100,0.00,,,-99.99,0,WeatherLink 5.4,2013-09-25 00:54:00,
2013-09-24 21:09:00,83.4,83.4,29.81,North,-999,0.0,0.0,100,0.00,,,-99.99,0,WeatherLink 5.4,2013-09-25 01:09:00,
2013-09-24 21:10:00,83.4,83.4,29.81,North,-999,0.0,0.0,100,0.00,,,-99.99,0,WeatherLink 5.4,2013-09-25 01:10:00,
2013-09-24 21:20:00,83.2,83.2,29.81,North,-999,0.0,0.0,100,0.00,,,-99.99,0,WeatherLink 5.4,2013-09-25 01:20:00,
2013-09-24 21:24:00,83.2,83.2,29.81,North,-999,0.0,0.0,100,0.00,,,-99.99,0,WeatherLink 5.4,2013-09-25 01:24:00,
2013-09-24 21:39:00,83.1,83.1,29.82,North,-999,0.0,0.0,100,0.00,,,-99.99,0,WeatherLink 5.4,2013-09-25 01:39:00,
2013-09-24 21:40:00,83.2,83.2,29.82,North,-999,0.0,0.0,100,0.00,,,-99.99,0,WeatherLink 5.4,2013-09-25 01:40:00,
2013-09-24 21:50:00,83.0,83.0,29.82,North,-999,0.0,0.0,100,0.00,,,-99.99,0,WeatherLink 5.4,2013-09-25 01:50:00,
2013-09-24 21:54:00,83.0,83.0,29.82,North,-999,0.0,0.0,100,0.00,,,-99.99,0,WeatherLink 5.4,2013-09-25 01:54:00,
2013-09-24 22:09:00,83.0,83.0,29.82,North,-999,0.0,0.0,100,0.00,,,-99.99,0,WeatherLink 5.4,2013-09-25 02:09:00,
2013-09-24 22:10:00,82.8,82.8,29.82,North,-999,0.0,0.0,100,0.00,,,-99.99,0,WeatherLink 5.4,2013-09-25 02:10:00,
2013-09-24 22:20:00,82.6,82.6,29.83,North,-999,0.0,0.0,100,0.00,,,-99.99,0,WeatherLink 5.4,2013-09-25 02:20:00,
2013-09-24 22:24:00,82.6,82.6,29.83,North,-999,0.0,0.0,100,0.00,,,-99.99,0,WeatherLink 5.4,2013-09-25 02:24:00,
2013-09-24 22:38:00,82.6,82.6,29.83,North,-999,0.0,0.0,100,0.00,,,-99.99,0,WeatherLink 5.4,2013-09-25 02:38:00,
2013-09-24 22:40:00,82.6,82.6,29.83,North,-999,0.0,0.0,100,0.00,,,-99.99,0,WeatherLink 5.4,2013-09-25 02:40:00,
2013-09-24 22:50:00,82.2,82.2,29.83,North,-999,0.0,0.0,100,0.00,,,-99.99,0,WeatherLink 5.4,2013-09-25 02:50:00,
2013-09-24 22:53:00,82.2,82.2,29.83,North,-999,0.0,0.0,100,0.00,,,-99.99,0,WeatherLink 5.4,2013-09-25 02:53:00,
2013-09-24 23:09:00,81.7,81.7,29.83,North,-999,0.0,0.0,100,0.00,,,-99.99,0,WeatherLink 5.4,2013-09-25 03:09:00,
2013-09-24 23:10:00,81.4,81.4,29.83,North,-999,0.0,0.0,100,0.00,,,-99.99,0,WeatherLink 5.4,2013-09-25 03:10:00,
2013-09-24 23:20:00,80.9,80.9,29.83,North,-999,0.0,0.0,100,0.00,,,-99.99,0,WeatherLink 5.4,2013-09-25 03:20:00,
2013-09-24 23:24:00,80.9,80.9,29.83,North,-999,0.0,0.0,100,0.00,,,-99.99,0,WeatherLink 5.4,2013-09-25 03:24:00,
2013-09-24 23:39:00,80.3,80.3,29.83,North,-999,0.0,0.0,100,0.00,,,-99.99,0,WeatherLink 5.4,2013-09-25 03:39:00,
2013-09-24 23:40:00,79.9,79.9,29.83,North,-999,0.0,0.0,100,0.00,,,-99.99,0,WeatherLink 5.4,2013-09-25 03:40:00,
2013-09-24 23:50:00,79.5,79.5,29.83,North,-999,0.0,0.0,100,0.00,,,-99.99,0,WeatherLink 5.4,2013-09-25 03:50:00,
2013-09-24 23:54:00,79.5,79.5,29.83,North,-999,0.0,0.0,100,0.00,,,-99.99,0,WeatherLink 5.4,2013-09-25 03:54:00,